createdAt,value
2023-04-02T00:02:22.212Z,1.55
2023-04-02T00:05:30.163Z,2.00
2023-04-02T00:08:40.848Z,1.42
2023-04-02T00:11:44.273Z,1.17
2023-04-02T00:14:46.865Z,1.50
2023-04-02T00:17:48.215Z,1.40
2023-04-02T00:21:04.489Z,1.50
2023-04-02T00:24:16.634Z,1.33
2023-04-02T00:27:18.004Z,1.40
2023-04-02T00:30:19.618Z,1.50
2023-04-02T00:33:22.217Z,1.30
2023-04-02T00:36:26.594Z,1.30
2023-04-02T00:39:29.780Z,1.40
2023-04-02T00:42:31.558Z,1.27
2023-04-02T00:45:36.399Z,1.23
2023-04-02T00:48:41.278Z,1.33
2023-04-02T00:54:51.897Z,1.25
2023-04-02T00:57:54.567Z,1.33
2023-04-02T01:00:56.635Z,1.20
2023-04-02T01:03:59.162Z,1.38
2023-04-02T01:07:05.045Z,1.55
2023-04-02T01:10:30.972Z,1.30
2023-04-02T01:13:54.457Z,1.25
2023-04-02T01:17:05.922Z,1.55
2023-04-02T01:20:30.928Z,1.30
2023-04-02T01:23:52.642Z,1.40
2023-04-02T01:26:57.659Z,1.30
2023-04-02T01:30:00.300Z,1.50
2023-04-02T01:33:01.726Z,1.25
2023-04-02T01:36:13.263Z,1.42
2023-04-02T01:39:23.777Z,1.40
2023-04-02T01:42:27.004Z,1.33
2023-04-02T01:45:29.392Z,2.45
2023-04-02T01:48:30.975Z,1.20
2023-04-02T01:51:33.078Z,1.33
2023-04-02T01:54:34.843Z,1.13
2023-04-02T01:57:36.271Z,1.20
2023-04-02T02:00:41.970Z,1.45
2023-04-02T02:03:44.157Z,1.30
2023-04-02T02:06:47.148Z,1.63
2023-04-02T02:09:48.850Z,1.40
2023-04-02T02:12:50.342Z,1.23
2023-04-02T02:15:51.694Z,1.55
2023-04-02T02:18:54.908Z,1.92
2023-04-02T02:21:57.946Z,2.33
2023-04-02T02:25:05.149Z,1.70
2023-04-02T02:28:09.301Z,1.27
2023-04-02T02:31:18.444Z,2.30
2023-04-02T02:34:21.274Z,1.50
2023-04-02T02:37:23.790Z,1.48
2023-04-02T02:40:31.773Z,1.60
2023-04-02T02:43:34.038Z,1.50
2023-04-02T02:46:44.816Z,1.40
2023-04-02T02:49:49.850Z,1.38
2023-04-02T02:52:53.245Z,1.50
2023-04-02T02:55:57.242Z,1.80
2023-04-02T02:59:00.183Z,1.67
2023-04-02T03:02:02.304Z,1.95
2023-04-02T03:05:04.818Z,1.70
2023-04-02T03:08:06.827Z,1.75
2023-04-02T03:11:11.902Z,1.70
2023-04-02T03:14:22.892Z,1.60
2023-04-02T03:17:30.539Z,1.45
2023-04-02T03:20:40.874Z,1.73
2023-04-02T03:23:43.426Z,2.50
2023-04-02T03:26:51.530Z,2.10
2023-04-02T03:29:59.120Z,1.77
2023-04-02T03:33:03.273Z,1.75
2023-04-02T03:36:04.709Z,2.20
2023-04-02T03:39:11.642Z,1.83
2023-04-02T03:42:12.908Z,1.80
2023-04-02T03:45:20.043Z,1.90
2023-04-02T03:48:27.711Z,1.90
2023-04-02T03:51:38.586Z,2.17
2023-04-02T03:54:40.700Z,2.25
2023-04-02T03:58:05.011Z,1.77
2023-04-02T04:01:27.336Z,1.77
2023-04-02T04:04:30.270Z,3.17
2023-04-02T04:07:34.288Z,1.80
2023-04-02T04:10:36.097Z,2.08
2023-04-02T04:13:44.699Z,2.08
2023-04-02T04:16:49.414Z,2.70
2023-04-02T04:19:54.985Z,2.85
2023-04-02T04:23:08.919Z,2.38
2023-04-02T04:26:25.972Z,2.63
2023-04-02T04:29:47.557Z,2.00
2023-04-02T04:32:51.342Z,2.40
2023-04-02T04:35:57.371Z,2.05
2023-04-02T04:39:00.415Z,1.95
2023-04-02T04:42:03.369Z,2.08
2023-04-02T04:45:28.855Z,1.80
2023-04-02T04:48:36.593Z,2.67
2023-04-02T04:51:41.980Z,2.00
2023-04-02T04:54:43.333Z,1.88
2023-04-02T04:57:44.965Z,1.83
2023-04-02T05:00:58.214Z,2.15
2023-04-02T05:04:04.134Z,2.22
2023-04-02T05:07:11.403Z,2.45
2023-04-02T05:10:19.783Z,2.03
2023-04-02T05:13:23.951Z,2.03
2023-04-02T05:16:25.300Z,2.00
2023-04-02T05:19:36.855Z,2.15
2023-04-02T05:22:41.991Z,2.47
2023-04-02T05:25:54.936Z,2.20
2023-04-02T05:28:59.280Z,2.15
2023-04-02T05:32:04.210Z,2.17
2023-04-02T05:35:06.799Z,2.00
2023-04-02T05:38:08.199Z,2.05
2023-04-02T05:41:27.048Z,2.45
2023-04-02T05:44:29.853Z,2.78
2023-04-02T05:47:32.125Z,2.13
2023-04-02T05:50:37.087Z,2.25
2023-04-02T05:53:41.342Z,1.92
2023-04-02T05:56:43.953Z,2.35
2023-04-02T05:59:49.299Z,2.70
2023-04-02T06:02:55.791Z,2.40
2023-04-02T06:05:59.116Z,2.63
2023-04-02T06:09:05.174Z,2.50
2023-04-02T06:12:36.013Z,2.20
2023-04-02T06:15:38.125Z,2.40
2023-04-02T06:18:39.492Z,2.28
2023-04-02T06:21:50.029Z,2.33
2023-04-02T06:25:11.950Z,2.78
2023-04-02T06:28:16.274Z,2.75
2023-04-02T06:31:27.824Z,2.72
2023-04-02T06:34:30.333Z,2.30
2023-04-02T06:37:42.094Z,2.45
2023-04-02T06:40:49.685Z,3.03
2023-04-02T06:43:54.349Z,2.30
2023-04-02T06:47:18.650Z,4.15
2023-04-02T06:53:44.707Z,2.38
2023-04-02T06:56:51.186Z,2.70
2023-04-02T06:59:52.511Z,2.28
2023-04-02T07:02:58.068Z,3.13
2023-04-02T07:06:00.972Z,3.28
2023-04-02T07:09:03.243Z,2.70
2023-04-02T07:12:11.175Z,2.20
2023-04-02T07:15:15.588Z,3.55
2023-04-02T07:21:18.437Z,2.13
2023-04-02T07:24:19.741Z,2.42
2023-04-02T07:27:21.011Z,2.67
2023-04-02T07:30:22.273Z,2.25
2023-04-02T07:33:24.479Z,2.58
2023-04-02T07:36:26.681Z,2.10
2023-04-02T07:39:28.075Z,2.42
2023-04-02T07:42:29.307Z,2.60
2023-04-02T07:45:31.356Z,2.15
2023-04-02T07:48:32.664Z,1.85
2023-04-02T07:51:33.946Z,2.53
2023-04-02T07:54:35.830Z,1.85
2023-04-02T07:57:56.991Z,1.90
2023-04-02T08:00:58.554Z,2.47
2023-04-02T08:03:59.828Z,2.10
2023-04-02T08:07:01.622Z,1.98
2023-04-02T08:10:03.646Z,1.98
2023-04-02T08:13:04.933Z,2.80
2023-04-02T08:16:06.968Z,2.35
2023-04-02T08:19:08.253Z,2.10
2023-04-02T08:22:09.540Z,1.55
2023-04-02T08:25:11.302Z,2.45
2023-04-02T08:28:13.081Z,3.47
2023-04-02T08:31:14.462Z,2.70
2023-04-02T08:34:15.848Z,2.40
2023-04-02T08:37:17.170Z,3.50
2023-04-02T08:40:23.049Z,3.28
2023-04-02T08:43:24.427Z,2.42
2023-04-02T08:46:27.409Z,3.13
2023-04-02T08:49:31.179Z,3.08
2023-04-02T08:52:34.407Z,3.10
2023-04-02T08:55:47.683Z,2.22
2023-04-02T08:58:49.011Z,2.30
2023-04-02T09:02:00.004Z,2.20
2023-04-02T09:05:03.709Z,2.72
2023-04-02T09:08:13.946Z,3.38
2023-04-02T09:11:22.512Z,3.08
2023-04-02T09:14:27.358Z,2.35
2023-04-02T09:17:31.205Z,2.90
2023-04-02T09:20:36.376Z,3.03
2023-04-02T09:23:37.637Z,2.67
2023-04-02T09:26:38.935Z,2.28
2023-04-02T09:29:45.059Z,3.03
2023-04-02T09:32:51.091Z,2.85
2023-04-02T09:35:54.580Z,1.30
2023-04-02T09:39:07.150Z,0.90
2023-04-02T09:42:27.792Z,0.90
2023-04-02T09:45:29.032Z,0.70
2023-04-02T09:48:35.716Z,0.65
2023-04-02T09:51:38.255Z,0.65
2023-04-02T09:54:41.593Z,1.17
2023-04-02T09:57:43.113Z,1.25
2023-04-02T10:00:51.478Z,0.73
2023-04-02T10:03:52.856Z,1.33
2023-04-02T10:06:57.932Z,1.00
2023-04-02T10:10:01.130Z,0.63
2023-04-02T10:13:04.225Z,0.60
2023-04-02T10:16:09.156Z,1.20
2023-04-02T10:19:27.867Z,0.50
2023-04-02T10:22:29.235Z,0.70
2023-04-02T10:25:32.351Z,0.93
2023-04-02T10:28:52.809Z,0.80
2023-04-02T10:32:27.121Z,1.27
2023-04-02T10:35:28.422Z,0.60
2023-04-02T10:38:43.438Z,0.70
2023-04-02T10:42:00.414Z,0.50
2023-04-02T10:45:20.714Z,0.60
2023-04-02T10:48:34.333Z,1.40
2023-04-02T10:51:41.594Z,1.50
2023-04-02T10:54:49.054Z,0.55
2023-04-02T10:57:52.039Z,1.58
2023-04-02T11:01:01.326Z,1.08
2023-04-02T11:04:11.234Z,2.80
2023-04-02T11:07:22.652Z,1.05
2023-04-02T11:10:25.010Z,1.50
2023-04-02T11:13:45.432Z,0.68
2023-04-02T11:16:58.799Z,1.10
2023-04-02T11:20:20.307Z,0.80
2023-04-02T11:23:22.050Z,0.70
2023-04-02T11:26:49.992Z,1.65
2023-04-02T11:29:53.487Z,0.70
2023-04-02T11:33:18.621Z,0.73
2023-04-02T11:36:40.867Z,0.95
2023-04-02T11:39:53.480Z,0.73
2023-04-02T11:42:54.818Z,0.73
2023-04-02T11:45:57.464Z,0.85
2023-04-02T11:49:22.276Z,0.88
2023-04-02T11:52:35.440Z,2.20
2023-04-02T11:55:38.171Z,1.38
2023-04-02T11:58:52.582Z,1.42
2023-04-02T12:01:53.841Z,1.27
2023-04-02T12:04:59.700Z,1.73
2023-04-02T12:08:16.266Z,1.00
2023-04-02T12:11:17.849Z,0.82
2023-04-02T12:14:39.399Z,0.93
2023-04-02T12:17:40.855Z,1.00
2023-04-02T12:20:47.153Z,0.73
2023-04-02T12:23:48.698Z,0.73
2023-04-02T12:27:06.889Z,0.90
2023-04-02T12:30:17.736Z,1.08
2023-04-02T12:33:25.077Z,1.20
2023-04-02T12:36:26.904Z,1.15
2023-04-02T12:39:28.929Z,1.05
2023-04-02T12:42:30.504Z,1.23
2023-04-02T12:45:33.301Z,1.80
2023-04-02T12:48:35.463Z,0.98
2023-04-02T12:51:36.989Z,1.13
2023-04-02T12:54:44.904Z,1.20
2023-04-02T12:57:49.795Z,1.00
2023-04-02T13:00:51.323Z,1.05
2023-04-02T13:04:09.204Z,0.98
2023-04-02T13:07:15.136Z,1.25
2023-04-02T13:10:23.850Z,1.23
2023-04-02T13:13:30.175Z,1.38
2023-04-02T13:16:40.917Z,1.55
2023-04-02T13:19:42.343Z,1.20
2023-04-02T13:22:43.615Z,1.23
2023-04-02T13:25:44.944Z,1.17
2023-04-02T13:29:00.354Z,1.10
2023-04-02T13:32:12.606Z,1.40
2023-04-02T13:35:13.893Z,1.40
2023-04-02T13:38:15.305Z,1.33
2023-04-02T13:41:19.075Z,2.17
2023-04-02T13:44:20.322Z,1.50
2023-04-02T13:47:21.839Z,1.15
2023-04-02T13:50:23.783Z,1.80
2023-04-02T13:53:29.142Z,1.50
2023-04-02T13:56:31.121Z,1.27
2023-04-02T13:59:32.403Z,1.30
2023-04-02T14:02:33.846Z,1.02
2023-04-02T14:05:54.234Z,1.23
2023-04-02T14:09:10.634Z,1.23
2023-04-02T14:12:22.141Z,1.23
2023-04-02T14:15:42.199Z,1.48
2023-04-02T14:18:49.585Z,1.98
2023-04-02T14:21:53.836Z,3.20
2023-04-02T14:24:55.179Z,1.92
2023-04-02T14:28:20.472Z,1.90
2023-04-02T14:31:28.691Z,2.00
2023-04-02T14:34:56.552Z,1.38
2023-04-02T14:38:08.131Z,2.83
2023-04-02T14:41:17.645Z,3.30
2023-04-02T14:44:20.935Z,2.13
2023-04-02T14:47:28.180Z,2.53
2023-04-02T14:50:32.883Z,1.95
2023-04-02T14:56:50.973Z,2.03
2023-04-02T14:59:57.142Z,1.88
2023-04-02T15:03:11.174Z,2.05
2023-04-02T15:06:18.622Z,2.17
2023-04-02T15:09:26.062Z,1.98
2023-04-02T15:12:31.019Z,2.20
2023-04-02T15:15:46.769Z,2.20
2023-04-02T15:18:52.155Z,2.08
2023-04-02T15:22:03.865Z,1.70
2023-04-02T15:25:14.781Z,1.90
2023-04-02T15:28:17.094Z,1.92
2023-04-02T15:31:21.452Z,1.92
2023-04-02T15:34:39.899Z,2.20
2023-04-02T15:37:41.201Z,2.40
2023-04-02T15:41:00.304Z,2.30
2023-04-02T15:44:07.498Z,2.50
2023-04-02T15:47:36.698Z,2.42
2023-04-02T15:50:38.661Z,2.08
2023-04-02T15:53:56.809Z,1.58
2023-04-02T15:56:58.127Z,1.95
2023-04-02T16:00:20.625Z,2.42
2023-04-02T16:03:24.646Z,2.13
2023-04-02T16:06:33.933Z,2.10
2023-04-02T16:09:44.645Z,2.92
2023-04-02T16:12:46.504Z,3.08
2023-04-02T16:15:50.644Z,2.58
2023-04-02T16:18:51.929Z,2.83
2023-04-02T16:22:05.470Z,3.20
2023-04-02T16:25:13.417Z,2.78
2023-04-02T16:28:26.352Z,3.05
2023-04-02T16:31:45.733Z,2.33
2023-04-02T16:34:50.305Z,2.45
2023-04-02T16:38:11.861Z,2.22
2023-04-02T16:41:13.166Z,2.45
2023-04-02T16:44:33.014Z,3.05
2023-04-02T16:47:47.170Z,2.20
2023-04-02T16:50:57.819Z,2.47
2023-04-02T16:54:12.097Z,2.25
2023-04-02T16:57:32.516Z,2.78
2023-04-02T17:00:41.041Z,2.80
2023-04-02T17:04:01.665Z,3.28
2023-04-02T17:07:11.247Z,2.60
2023-04-02T17:10:12.657Z,2.28
2023-04-02T17:13:27.988Z,2.63
2023-04-02T17:16:36.259Z,2.47
2023-04-02T17:19:39.336Z,2.40
2023-04-02T17:22:40.632Z,1.95
2023-04-02T17:25:46.520Z,2.38
2023-04-02T17:28:49.146Z,2.42
2023-04-02T17:31:50.899Z,2.83
2023-04-02T17:34:52.341Z,2.38
2023-04-02T17:38:08.089Z,2.17
2023-04-02T17:41:21.266Z,2.45
2023-04-02T17:44:22.585Z,2.88
2023-04-02T17:47:30.036Z,3.58
2023-04-02T17:50:50.287Z,2.33
2023-04-02T17:54:10.390Z,2.22
2023-04-02T17:57:20.700Z,2.28
2023-04-02T18:00:57.489Z,2.30
2023-04-02T18:04:01.598Z,1.63
2023-04-02T18:07:02.856Z,1.77
2023-04-02T18:10:07.114Z,1.70
2023-04-02T18:13:23.663Z,2.35
2023-04-02T18:16:30.910Z,2.25
2023-04-02T18:19:35.363Z,1.95
2023-04-02T18:22:39.761Z,2.33
2023-04-02T18:25:59.262Z,1.85
2023-04-02T18:29:19.506Z,1.90
2023-04-02T18:32:35.868Z,2.08
2023-04-02T18:35:40.094Z,1.90
2023-04-02T18:38:47.767Z,2.15
2023-04-02T18:42:08.754Z,1.77
2023-04-02T18:45:29.112Z,2.08
2023-04-02T18:48:33.585Z,2.00
2023-04-02T18:51:36.622Z,2.38
2023-04-02T18:54:41.205Z,2.53
2023-04-02T18:57:43.095Z,2.20
2023-04-02T19:00:44.952Z,1.77
2023-04-02T19:03:51.336Z,2.00
2023-04-02T19:07:01.612Z,1.70
2023-04-02T19:10:07.580Z,1.63
2023-04-02T19:13:14.165Z,1.90
2023-04-02T19:16:18.752Z,1.50
2023-04-02T19:19:27.102Z,1.73
2023-04-02T19:22:44.840Z,2.22
2023-04-02T19:26:04.895Z,2.00
2023-04-02T19:29:06.147Z,1.90
2023-04-02T19:32:23.033Z,1.70
2023-04-02T19:35:28.952Z,2.15
2023-04-02T19:38:31.022Z,2.65
2023-04-02T19:41:39.329Z,3.83
2023-04-02T19:44:42.564Z,2.90
2023-04-02T19:47:43.869Z,2.00
2023-04-02T19:50:45.486Z,1.70
2023-04-02T19:53:46.768Z,1.83
2023-04-02T19:56:48.346Z,2.13
2023-04-02T19:59:49.711Z,1.90
2023-04-02T20:02:51.109Z,1.70
2023-04-02T20:05:52.839Z,1.60
2023-04-02T20:08:54.273Z,1.83
2023-04-02T20:11:55.702Z,1.70
2023-04-02T20:14:56.975Z,1.70
2023-04-02T20:17:58.522Z,2.60
2023-04-02T20:21:03.474Z,2.22
2023-04-02T20:24:05.754Z,1.90
2023-04-02T20:27:07.221Z,2.17
2023-04-02T20:30:08.752Z,1.70
2023-04-02T20:33:10.239Z,1.45
2023-04-02T20:36:12.980Z,1.63
2023-04-02T20:39:19.241Z,2.03
2023-04-02T20:42:20.541Z,2.10
2023-04-02T20:45:22.069Z,2.03
2023-04-02T20:48:23.912Z,1.90
2023-04-02T20:51:25.857Z,1.67
2023-04-02T20:54:27.231Z,2.00
2023-04-02T20:57:31.556Z,2.22
2023-04-02T21:00:33.143Z,2.75
2023-04-02T21:03:34.537Z,1.92
2023-04-02T21:06:37.007Z,2.05
2023-04-02T21:09:38.321Z,1.63
2023-04-02T21:12:39.590Z,1.60
2023-04-02T21:15:43.131Z,1.92
2023-04-02T21:18:45.269Z,1.75
2023-04-02T21:21:46.843Z,1.70
2023-04-02T21:24:48.151Z,2.53
2023-04-02T21:27:49.460Z,1.73
2023-04-02T21:30:50.895Z,2.30
2023-04-02T21:33:53.240Z,2.17
2023-04-02T21:36:54.494Z,1.67
2023-04-02T21:39:55.734Z,1.98
2023-04-02T21:42:57.024Z,1.90
2023-04-02T21:45:58.797Z,1.90
2023-04-02T21:49:00.148Z,1.83
2023-04-02T21:52:01.505Z,1.98
2023-04-02T21:55:02.898Z,1.85
2023-04-02T21:58:04.306Z,2.30
2023-04-02T22:01:11.117Z,2.10
2023-04-02T22:04:17.435Z,1.70
2023-04-02T22:07:18.716Z,1.83
2023-04-02T22:10:19.964Z,2.58
2023-04-02T22:13:21.897Z,3.03
2023-04-02T22:16:24.716Z,1.58
2023-04-02T22:19:26.284Z,2.08
2023-04-02T22:22:27.614Z,2.00
2023-04-02T22:25:29.602Z,1.63
2023-04-02T22:28:31.652Z,1.65
2023-04-02T22:31:33.485Z,1.90
2023-04-02T22:34:34.989Z,1.90
2023-04-02T22:37:36.307Z,1.63
2023-04-02T22:40:37.784Z,1.52
2023-04-02T22:43:40.038Z,1.90
2023-04-02T22:46:41.462Z,1.70
2023-04-02T22:49:42.801Z,1.50
2023-04-02T22:52:44.644Z,1.67
2023-04-02T22:55:46.203Z,1.50
2023-04-02T22:58:47.704Z,1.80
2023-04-02T23:01:49.152Z,2.15
2023-04-02T23:04:50.515Z,2.20
2023-04-02T23:07:51.788Z,1.45
2023-04-02T23:10:59.532Z,1.60
2023-04-02T23:14:01.015Z,1.77
2023-04-02T23:17:02.288Z,1.40
2023-04-02T23:20:07.943Z,1.45
2023-04-02T23:23:09.202Z,1.35
2023-04-02T23:26:12.045Z,1.63
2023-04-02T23:29:13.371Z,1.52
2023-04-02T23:32:15.668Z,1.88
2023-04-02T23:35:16.918Z,1.58
2023-04-02T23:38:18.268Z,1.33
2023-04-02T23:41:19.549Z,1.55
2023-04-02T23:44:20.839Z,1.70
2023-04-02T23:47:22.135Z,1.60
2023-04-02T23:50:23.416Z,1.55
2023-04-02T23:53:24.804Z,1.92
2023-04-02T23:56:26.248Z,1.63
2023-04-02T23:59:27.557Z,1.65
